Time;durP1;ratioP1;P1;durP2;ratioP2;P2;SDS_P1;SDS_P2;PMS_P1;PMS_P2;Temp;Humidity;BMP_temperature;BMP_pressure;BME280_temperature;BME280_humidity;BME280_pressure;Samples;Min_cycle;Max_cycle;Signal;HPM_P1;HPM_P2
2022/01/11 00:00:03;;;;;;;31.52;16.48;;;;;;;6.46;100.00;101572.66;5099599;28;20031;-72
2022/01/11 00:02:29;;;;;;;27.45;15.77;;;;;;;6.48;100.00;101572.41;5083838;27;20403;-73
2022/01/11 00:04:55;;;;;;;27.35;14.77;;;;;;;6.48;100.00;101581.53;5084376;28;20584;-73
2022/01/11 00:07:22;;;;;;;29.55;16.08;;;;;;;6.48;100.00;101581.53;5105590;28;20032;-72
2022/01/11 00:09:50;;;;;;;29.20;16.25;;;;;;;6.47;100.00;101579.84;5069049;27;20106;-73
2022/01/11 00:12:16;;;;;;;33.20;17.63;;;;;;;6.46;100.00;101578.19;5070986;28;20037;-72
2022/01/11 00:14:41;;;;;;;31.48;16.77;;;;;;;6.47;100.00;101582.63;5083276;28;20352;-72
2022/01/11 00:17:07;;;;;;;30.25;16.95;;;;;;;6.47;100.00;101579.84;5083862;27;20031;-72
2022/01/11 00:19:33;;;;;;;30.47;19.50;;;;;;;6.46;100.00;101580.09;5072769;28;20444;-72
2022/01/11 00:22:01;;;;;;;29.75;17.42;;;;;;;6.46;100.00;101578.19;5060255;28;20031;-72
2022/01/11 00:24:30;;;;;;;29.50;17.33;;;;;;;6.45;100.00;101576.47;5089860;28;20051;-72
2022/01/11 00:26:57;;;;;;;29.25;17.95;;;;;;;6.46;100.00;101578.19;5084287;28;20283;-72
2022/01/11 00:29:23;;;;;;;24.30;15.57;;;;;;;6.47;100.00;101573.50;5050754;28;20019;-73
2022/01/11 00:31:49;;;;;;;28.90;17.88;;;;;;;6.46;100.00;101583.69;5057142;28;20078;-72
2022/01/11 00:34:17;;;;;;;30.10;17.65;;;;;;;6.47;100.00;101585.38;5065662;28;20077;-72
2022/01/11 00:36:43;;;;;;;28.60;16.60;;;;;;;6.46;100.00;101591.97;5077686;28;20024;-73
2022/01/11 00:39:09;;;;;;;31.95;18.13;;;;;;;6.43;100.00;101589.69;5075524;28;20027;-72
2022/01/11 00:41:37;;;;;;;31.63;18.05;;;;;;;6.45;100.00;101595.81;5075849;28;20645;-72
2022/01/11 00:44:03;;;;;;;31.33;18.23;;;;;;;6.44;100.00;101599.66;5079030;28;20038;-73
2022/01/11 00:46:28;;;;;;;30.27;16.95;;;;;;;6.44;100.00;101607.94;5103108;28;20380;-73
2022/01/11 00:48:53;;;;;;;27.77;17.70;;;;;;;6.43;100.00;101606.22;5102144;28;20036;-73
2022/01/11 00:51:19;;;;;;;31.05;18.50;;;;;;;6.43;100.00;101606.22;5101220;28;20098;-72
2022/01/11 00:53:44;;;;;;;27.63;17.15;;;;;;;6.44;100.00;101599.66;5062105;28;20701;-72
2022/01/11 00:56:10;;;;;;;32.20;19.05;;;;;;;6.45;100.00;101603.25;5060514;28;20050;-73
2022/01/11 00:58:35;;;;;;;37.10;18.80;;;;;;;6.45;100.00;101600.50;5092924;28;20058;-72
2022/01/11 01:01:01;;;;;;;32.05;19.73;;;;;;;6.44;100.00;101591.38;5057972;28;20059;-72
2022/01/11 01:03:26;;;;;;;31.58;19.63;;;;;;;6.47;100.00;101596.41;5098276;28;20061;-73
2022/01/11 01:05:52;;;;;;;36.10;21.67;;;;;;;6.46;100.00;101605.78;5086388;27;20032;-72
2022/01/11 01:08:18;;;;;;;36.35;20.23;;;;;;;6.44;100.00;101602.41;5106787;28;20031;-72
2022/01/11 01:10:46;;;;;;;35.20;20.50;;;;;;;6.43;100.00;101603.47;5096408;28;20028;-72
2022/01/11 01:13:15;;;;;;;29.95;18.30;;;;;;;6.46;100.00;101604.91;5090586;28;20232;-72
2022/01/11 01:15:41;;;;;;;33.10;19.67;;;;;;;6.41;100.00;101596.53;5114572;27;20107;-73
2022/01/11 01:18:06;;;;;;;35.97;20.65;;;;;;;6.43;100.00;101600.72;5109729;27;20032;-72
2022/01/11 01:20:33;;;;;;;33.58;20.73;;;;;;;6.42;100.00;101604.56;5084933;28;20030;-72
2022/01/11 01:22:58;;;;;;;34.78;20.45;;;;;;;6.44;100.00;101602.41;5080430;28;20032;-72
2022/01/11 01:25:24;;;;;;;33.03;20.90;;;;;;;6.44;100.00;101601.59;5104459;28;20028;-73
2022/01/11 01:27:50;;;;;;;40.65;22.38;;;;;;;6.44;100.00;101602.41;5089480;28;20049;-72
2022/01/11 01:30:17;;;;;;;38.25;24.02;;;;;;;6.41;100.00;101602.91;5075595;28;20494;-72
2022/01/11 01:32:43;;;;;;;33.72;19.55;;;;;;;6.41;100.00;101600.13;5062028;28;20500;-73
2022/01/11 01:35:09;;;;;;;34.70;20.05;;;;;;;6.40;100.00;101605.88;5064581;28;20384;-72
2022/01/11 01:37:35;;;;;;;35.88;20.10;;;;;;;6.43;100.00;101606.22;5095491;28;20042;-73
2022/01/11 01:40:00;;;;;;;32.60;19.98;;;;;;;6.40;100.00;101606.72;5079355;28;20028;-72
2022/01/11 01:42:29;;;;;;;33.67;20.10;;;;;;;6.41;100.00;101602.06;5062689;28;20036;-72
2022/01/11 01:44:54;;;;;;;36.20;20.63;;;;;;;6.43;100.00;101606.22;5082617;28;20514;-73
2022/01/11 01:47:20;;;;;;;33.78;20.45;;;;;;;6.40;100.00;101606.72;5086994;28;20105;-73
2022/01/11 01:49:45;;;;;;;35.97;21.77;;;;;;;6.41;100.00;101607.59;5062449;28;20023;-72
2022/01/11 01:52:12;;;;;;;36.70;20.80;;;;;;;6.42;100.00;101606.50;5088380;28;20486;-73
2022/01/11 01:54:37;;;;;;;32.55;20.48;;;;;;;6.43;100.00;101605.41;5062917;28;20034;-72
2022/01/11 01:57:03;;;;;;;32.10;19.55;;;;;;;6.40;100.00;101606.72;5086558;28;20031;-72
2022/01/11 01:59:29;;;;;;;32.17;20.90;;;;;;;6.41;100.00;101597.38;5079991;28;20030;-72
2022/01/11 02:01:54;;;;;;;38.28;22.13;;;;;;;6.40;100.00;101606.72;5078138;28;20031;-72
2022/01/11 02:04:21;;;;;;;35.05;21.75;;;;;;;6.40;100.00;101601.19;5076181;28;20043;-72
2022/01/11 02:06:46;;;;;;;37.33;20.75;;;;;;;6.41;100.00;101610.34;5075872;28;20110;-72
2022/01/11 02:09:12;;;;;;;33.63;20.98;;;;;;;6.40;100.00;101611.41;5066117;28;20106;-73
2022/01/11 02:11:37;;;;;;;37.25;22.58;;;;;;;6.37;100.00;101603.59;5060616;28;20027;-73
2022/01/11 02:14:03;;;;;;;44.92;22.13;;;;;;;6.35;100.00;101614.91;5065242;28;20036;-72
2022/01/11 02:16:28;;;;;;;35.17;22.75;;;;;;;6.36;100.00;101612.97;5081035;28;20031;-72
2022/01/11 02:18:54;;;;;;;37.40;21.23;;;;;;;6.37;100.00;101609.13;5050187;28;20092;-72
2022/01/11 02:21:20;;;;;;;39.55;24.10;;;;;;;6.33;100.00;101608.78;5091636;28;20038;-73
2022/01/11 02:23:45;;;;;;;45.05;21.90;;;;;;;6.34;100.00;101617.88;5069672;28;20028;-73
2022/01/11 02:26:11;;;;;;;36.63;22.17;;;;;;;6.32;100.00;101620.88;5059848;28;20098;-72
2022/01/11 02:28:37;;;;;;;40.13;26.17;;;;;;;6.31;100.00;101612.84;5071948;28;20383;-72
2022/01/11 02:31:07;;;;;;;;;;;;;;;6.35;100.00;101619.53;5051877;28;20051;-72
2022/01/11 02:33:44;;;;;;;45.83;23.30;;;;;;;6.33;100.00;101622.56;5080909;28;19918;-72
2022/01/11 02:36:13;;;;;;;35.65;20.98;;;;;;;6.31;100.00;101624.72;5080420;28;20016;-73
2022/01/11 02:38:38;;;;;;;36.03;20.92;;;;;;;6.34;100.00;101624.22;5094420;28;20094;-72
2022/01/11 02:41:04;;;;;;;35.50;21.13;;;;;;;6.32;100.00;101620.03;5094634;28;20036;-72
2022/01/11 02:43:30;;;;;;;37.45;22.77;;;;;;;6.34;100.00;101626.16;5111186;28;20028;-72
2022/01/11 02:45:56;;;;;;;36.13;21.10;;;;;;;6.30;100.00;101623.03;5093466;28;20029;-72
2022/01/11 02:48:21;;;;;;;41.22;23.75;;;;;;;6.33;100.00;101627.25;5088760;28;20031;-73
2022/01/11 02:50:47;;;;;;;40.10;22.15;;;;;;;6.32;100.00;101629.13;5093102;28;20032;-72
2022/01/11 02:53:13;;;;;;;35.63;21.05;;;;;;;6.33;100.00;101628.09;5094090;28;20035;-73
2022/01/11 02:55:40;;;;;;;32.28;20.52;;;;;;;6.33;100.00;101632.78;5111304;28;20023;-73
2022/01/11 02:58:06;;;;;;;36.65;22.17;;;;;;;6.31;100.00;101635.75;5067112;28;20034;-72
2022/01/11 03:00:32;;;;;;;34.95;20.60;;;;;;;6.33;100.00;101639.13;5065922;27;20056;-73
2022/01/11 03:03:13;;;;;;;33.85;20.95;;;;;;;6.33;100.00;101638.28;5077785;27;20023;-73
2022/01/11 03:05:46;;;;;;;35.88;20.55;;;;;;;6.31;100.00;101646.78;5099505;28;20027;-72
2022/01/11 03:08:13;;;;;;;34.70;21.90;;;;;;;6.31;100.00;101649.53;5082245;28;20084;-73
2022/01/11 03:10:38;;;;;;;36.03;20.38;;;;;;;6.31;100.00;101652.31;5077737;27;20039;-72
2022/01/11 03:13:05;;;;;;;36.35;21.35;;;;;;;6.30;100.00;101655.31;5086621;27;20026;-72
2022/01/11 03:15:30;;;;;;;38.72;22.25;;;;;;;6.32;100.00;101658.66;5072466;27;20051;-72
2022/01/11 03:17:56;;;;;;;38.33;23.02;;;;;;;6.30;100.00;101658.91;5073107;28;20032;-72
2022/01/11 03:20:21;;;;;;;41.78;23.20;;;;;;;6.31;100.00;101665.25;5068492;28;20036;-72
2022/01/11 03:22:47;;;;;;;37.60;20.83;;;;;;;6.29;100.00;101671.00;5082939;28;20084;-72
2022/01/11 03:25:13;;;;;;;37.67;21.42;;;;;;;6.32;100.00;101675.22;5097992;28;20038;-72
2022/01/11 03:27:40;;;;;;;33.20;20.75;;;;;;;6.30;100.00;101671.88;5070979;27;20035;-72
2022/01/11 03:30:06;;;;;;;33.70;21.17;;;;;;;6.30;100.00;101671.88;5052617;28;20032;-72
2022/01/11 03:32:31;;;;;;;39.72;23.30;;;;;;;6.30;100.00;101667.19;5077002;28;20048;-73
2022/01/11 03:34:57;;;;;;;41.78;23.58;;;;;;;6.33;100.00;101668.63;5088209;28;20487;-73
2022/01/11 03:37:22;;;;;;;38.33;22.30;;;;;;;6.32;100.00;101667.78;5074116;27;20083;-72
2022/01/11 03:39:48;;;;;;;40.10;22.00;;;;;;;6.34;100.00;101675.81;5090290;28;20050;-72
2022/01/11 03:42:14;;;;;;;40.47;22.33;;;;;;;6.33;100.00;101672.22;5082724;28;20027;-72
2022/01/11 03:44:39;;;;;;;40.00;22.20;;;;;;;6.31;100.00;101666.09;5065178;28;20031;-73
2022/01/11 03:47:05;;;;;;;37.90;22.65;;;;;;;6.31;100.00;101668.84;5084152;28;20027;-72
2022/01/11 03:49:31;;;;;;;41.83;22.30;;;;;;;6.32;100.00;101667.78;5072054;28;20530;-72
2022/01/11 03:51:56;;;;;;;37.13;21.45;;;;;;;6.30;100.00;101661.66;5098418;27;20032;-72
2022/01/11 03:54:25;;;;;;;44.22;24.02;;;;;;;6.30;100.00;101661.66;5081914;27;20023;-73
2022/01/11 03:56:50;;;;;;;38.80;22.40;;;;;;;6.32;100.00;101665.00;5083438;28;20160;-72
2022/01/11 03:59:16;;;;;;;35.30;20.85;;;;;;;6.32;100.00;101669.69;5097921;27;20035;-72
2022/01/11 04:01:41;;;;;;;39.65;23.52;;;;;;;6.32;100.00;101670.53;5096554;28;20032;-72
2022/01/11 04:04:07;;;;;;;38.40;21.48;;;;;;;6.30;100.00;101672.72;5096427;28;20032;-72
2022/01/11 04:06:33;;;;;;;43.72;21.83;;;;;;;6.32;100.00;101670.53;5083224;28;20563;-72
2022/01/11 04:08:59;;;;;;;35.75;22.33;;;;;;;6.30;100.00;101666.34;5090218;28;20111;-72
2022/01/11 04:11:24;;;;;;;37.42;23.35;;;;;;;6.33;100.00;101665.88;5079441;28;20034;-73
2022/01/11 04:13:50;;;;;;;37.35;21.30;;;;;;;6.33;100.00;101663.13;5098646;28;20038;-73
2022/01/11 04:16:15;;;;;;;40.17;21.67;;;;;;;6.34;100.00;101673.06;5066419;28;20073;-73
2022/01/11 04:18:41;;;;;;;34.83;20.55;;;;;;;6.30;100.00;101671.88;5080151;28;20077;-72
2022/01/11 04:21:06;;;;;;;43.63;21.80;;;;;;;6.30;100.00;101672.72;5096408;27;20096;-72
2022/01/11 04:23:32;;;;;;;35.45;21.80;;;;;;;6.31;100.00;101673.53;5100250;28;20103;-73
2022/01/11 04:25:59;;;;;;;38.28;21.20;;;;;;;6.30;100.00;101672.72;5112490;27;20035;-72
2022/01/11 04:28:25;;;;;;;38.65;21.40;;;;;;;6.28;100.00;101676.78;5084022;28;20111;-72
2022/01/11 04:30:52;;;;;;;34.50;21.67;;;;;;;6.25;100.00;101681.69;5071393;27;20039;-72
2022/01/11 04:33:18;;;;;;;40.92;23.00;;;;;;;6.28;100.00;101679.53;5067681;27;20036;-72
2022/01/11 04:35:48;;;;;;;38.10;21.65;;;;;;;6.29;100.00;101679.28;5060364;28;20476;-72
2022/01/11 04:38:20;;;;;;;40.38;21.75;;;;;;;6.29;100.00;101681.22;5086183;28;20464;-72
2022/01/11 04:40:46;;;;;;;37.05;21.13;;;;;;;6.28;100.00;101683.13;5081111;27;20437;-72
2022/01/11 04:43:11;;;;;;;39.45;21.98;;;;;;;6.25;100.00;101681.69;5077877;28;20043;-72
2022/01/11 04:45:37;;;;;;;38.53;21.33;;;;;;;6.26;100.00;101677.84;5064864;28;20032;-72
2022/01/11 04:48:03;;;;;;;41.17;22.17;;;;;;;6.25;100.00;101687.19;5053673;28;20078;-72
2022/01/11 04:50:28;;;;;;;;;;;;;;;6.28;100.00;101688.66;5082831;28;20106;-72
2022/01/11 04:52:54;;;;;;;42.20;22.65;;;;;;;6.25;100.00;101686.38;5082745;28;19912;-72
2022/01/11 04:55:19;;;;;;;41.38;22.25;;;;;;;6.23;100.00;101691.28;5066393;27;20110;-72
2022/01/11 04:57:45;;;;;;;37.47;21.15;;;;;;;6.25;100.00;101691.88;5068510;27;20038;-72
2022/01/11 05:00:11;;;;;;;42.45;22.58;;;;;;;6.25;100.00;101691.88;5089180;27;20024;-72
2022/01/11 05:02:37;;;;;;;46.63;23.98;;;;;;;6.24;100.00;101693.81;5065474;28;20543;-72
2022/01/11 05:05:03;;;;;;;41.38;22.90;;;;;;;6.26;100.00;101701.84;5064799;28;20058;-72
2022/01/11 05:07:28;;;;;;;43.47;22.92;;;;;;;6.25;100.00;101702.91;5063792;27;20023;-73
2022/01/11 05:09:54;;;;;;;38.72;21.63;;;;;;;6.25;100.00;101705.69;5080952;28;20353;-72
2022/01/11 05:12:20;;;;;;;42.55;21.33;;;;;;;6.24;100.00;101709.50;5073824;28;20020;-72
2022/01/11 05:14:45;;;;;;;40.05;21.35;;;;;;;6.23;100.00;101713.34;5080394;27;20387;-72
2022/01/11 05:17:11;;;;;;;38.47;21.33;;;;;;;6.23;100.00;101718.84;5050797;27;20058;-72
2022/01/11 05:19:36;;;;;;;36.42;19.77;;;;;;;6.25;100.00;101716.72;5086090;27;20438;-72
2022/01/11 05:22:02;;;;;;;34.53;19.70;;;;;;;6.22;100.00;101720.78;5064277;27;20030;-73
2022/01/11 05:24:27;;;;;;;41.42;21.98;;;;;;;6.22;100.00;101719.94;5090349;27;20028;-73
2022/01/11 05:26:53;;;;;;;38.53;21.25;;;;;;;6.22;100.00;101723.53;5091776;27;20051;-73
2022/01/11 05:29:19;;;;;;;36.38;21.33;;;;;;;6.24;100.00;101728.81;5047629;28;20027;-73
2022/01/11 05:31:44;;;;;;;34.78;21.05;;;;;;;6.25;100.00;101736.03;5075229;28;20082;-72
2022/01/11 05:34:10;;;;;;;39.40;20.95;;;;;;;6.24;100.00;101737.94;5072151;28;20036;-73
2022/01/11 05:36:35;;;;;;;39.38;21.05;;;;;;;6.26;100.00;101743.22;5077704;28;20020;-73
2022/01/11 05:39:01;;;;;;;35.47;20.15;;;;;;;6.26;100.00;101749.56;5061612;28;20038;-73
2022/01/11 05:41:26;;;;;;;35.17;20.30;;;;;;;6.26;100.00;101744.06;5082097;27;20031;-73
2022/01/11 05:43:51;;;;;;;38.25;19.75;;;;;;;6.28;100.00;101746.59;5063219;28;20039;-72
2022/01/11 05:46:17;;;;;;;41.60;21.35;;;;;;;6.27;100.00;101750.44;5061650;28;20415;-73
2022/01/11 05:48:44;;;;;;;44.28;21.13;;;;;;;6.28;100.00;101751.28;5081833;28;20039;-72
2022/01/11 05:51:11;;;;;;;38.03;20.98;;;;;;;6.27;100.00;101750.44;5049424;27;20473;-73
2022/01/11 05:53:37;;;;;;;37.60;20.48;;;;;;;6.26;100.00;101745.97;5093212;28;20053;-72
2022/01/11 05:56:02;;;;;;;42.90;21.77;;;;;;;6.26;100.00;101748.72;5082841;28;20020;-72
2022/01/11 05:58:28;;;;;;;41.67;21.40;;;;;;;6.25;100.00;101749.81;5067741;28;20088;-72
2022/01/11 06:00:54;;;;;;;39.63;21.48;;;;;;;6.26;100.00;101757.00;5063148;28;20039;-72
2022/01/11 06:03:19;;;;;;;44.00;22.95;;;;;;;6.24;100.00;101756.41;5077288;28;20465;-73
2022/01/11 06:05:45;;;;;;;36.42;22.73;;;;;;;6.23;100.00;101763.00;5061884;28;20028;-72
2022/01/11 06:08:16;;;;;;;40.88;22.25;;;;;;;6.24;100.00;101760.03;5066740;28;20027;-72
2022/01/11 06:10:41;;;;;;;38.30;21.52;;;;;;;6.22;100.00;101755.81;5108566;28;20553;-72
2022/01/11 06:13:07;;;;;;;40.53;22.85;;;;;;;6.22;100.00;101767.69;5082957;28;20028;-72
2022/01/11 06:15:33;;;;;;;40.35;23.05;;;;;;;6.23;100.00;101766.59;5069200;28;20035;-72
2022/01/11 06:17:59;;;;;;;38.05;22.00;;;;;;;6.24;100.00;101770.19;5078966;28;20032;-72
2022/01/11 06:20:24;;;;;;;37.60;22.42;;;;;;;6.24;100.00;101761.91;5055478;28;20028;-72
2022/01/11 06:22:50;;;;;;;43.63;24.35;;;;;;;6.22;100.00;101772.38;5074082;28;20031;-73
2022/01/11 06:25:15;;;;;;;41.35;23.45;;;;;;;6.23;100.00;101771.28;5078572;28;20081;-72
2022/01/11 06:27:42;;;;;;;39.55;23.25;;;;;;;6.22;100.00;101775.13;5079746;28;20019;-72
2022/01/11 06:30:08;;;;;;;41.28;23.50;;;;;;;6.17;100.00;101766.69;5072688;28;20036;-72
2022/01/11 06:32:34;;;;;;;38.28;22.40;;;;;;;6.16;100.00;101771.38;5078211;28;20104;-73
2022/01/11 06:34:59;;;;;;;38.58;21.92;;;;;;;6.18;100.00;101776.66;5079947;27;20024;-72
2022/01/11 06:37:25;;;;;;;44.08;21.73;;;;;;;6.16;100.00;101765.03;5098980;28;20024;-72
2022/01/11 06:39:50;;;;;;;44.65;24.98;;;;;;;6.19;100.00;101776.44;5096365;28;20039;-72
2022/01/11 06:42:16;;;;;;;47.33;23.48;;;;;;;6.12;100.00;101770.16;5057159;28;20048;-73
2022/01/11 06:44:42;;;;;;;47.20;23.75;;;;;;;6.14;100.00;101775.44;5098223;28;20024;-72
2022/01/11 06:47:08;;;;;;;51.92;25.13;;;;;;;6.13;100.00;101779.25;5070166;28;20463;-72
2022/01/11 06:49:34;;;;;;;48.67;25.08;;;;;;;6.12;100.00;101777.59;5071306;28;20031;-72
2022/01/11 06:51:59;;;;;;;45.80;24.77;;;;;;;6.11;100.00;101784.19;5093113;28;20475;-72
2022/01/11 06:54:25;;;;;;;49.15;25.55;;;;;;;6.08;100.00;101774.47;5073433;28;20038;-73
2022/01/11 06:56:51;;;;;;;48.30;25.85;;;;;;;6.08;100.00;101776.38;5108224;28;20058;-72
2022/01/11 06:59:16;;;;;;;46.35;25.40;;;;;;;6.03;100.00;101780.66;5076782;28;20043;-72
2022/01/11 07:01:42;;;;;;;50.00;25.90;;;;;;;6.04;100.00;101787.03;5065930;28;20027;-72
2022/01/11 07:04:07;;;;;;;47.88;25.50;;;;;;;6.03;100.00;101790.88;5063054;28;20031;-72
2022/01/11 07:06:33;;;;;;;44.13;23.95;;;;;;;6.00;100.00;101794.94;5076200;28;20043;-72
2022/01/11 07:08:58;;;;;;;42.50;24.73;;;;;;;5.97;100.00;101776.09;5089959;28;20066;-72
2022/01/11 07:11:24;;;;;;;51.40;25.83;;;;;;;5.95;100.00;101780.97;5060326;28;20020;-72
2022/01/11 07:13:50;;;;;;;45.88;24.52;;;;;;;5.95;100.00;101792.00;5072348;28;20024;-72
2022/01/11 07:16:15;;;;;;;41.85;23.20;;;;;;;5.94;100.00;101798.63;5098651;28;20036;-70
2022/01/11 07:18:41;;;;;;;43.65;22.65;;;;;;;5.95;100.00;101805.81;5093279;28;20038;-70
2022/01/11 07:21:07;;;;;;;46.45;24.20;;;;;;;5.95;100.00;101814.06;5098224;28;20046;-70
2022/01/11 07:23:32;;;;;;;38.65;23.33;;;;;;;5.95;100.00;101816.84;5071211;28;20028;-70
2022/01/11 07:25:57;;;;;;;44.53;23.25;;;;;;;5.97;100.00;101822.13;5054433;28;20401;-70
2022/01/11 07:28:23;;;;;;;45.47;24.13;;;;;;;5.97;100.00;101822.13;5041876;28;20028;-70
2022/01/11 07:30:50;;;;;;;43.25;22.50;;;;;;;5.97;100.00;101822.13;5097793;27;20031;-70
2022/01/11 07:33:16;;;;;;;45.25;22.65;;;;;;;5.94;100.00;101817.91;5117188;27;20035;-70
2022/01/11 07:35:41;;;;;;;39.55;22.27;;;;;;;5.94;100.00;101826.19;5076173;27;20038;-70
2022/01/11 07:38:07;;;;;;;38.45;22.10;;;;;;;5.96;100.00;101826.81;5080812;27;20042;-70
2022/01/11 07:40:32;;;;;;;36.80;22.33;;;;;;;5.95;100.00;101827.88;5098781;27;20049;-70
2022/01/11 07:42:58;;;;;;;40.25;22.60;;;;;;;5.95;100.00;101833.38;5118161;27;20036;-70
2022/01/11 07:45:23;;;;;;;48.45;26.05;;;;;;;5.94;100.00;101833.63;5071850;27;20039;-70
2022/01/11 07:47:49;;;;;;;48.35;24.10;;;;;;;5.94;100.00;101844.66;5100120;27;20035;-70
2022/01/11 07:50:14;;;;;;;43.88;24.83;;;;;;;5.95;100.00;101847.16;5091641;27;20031;-70
2022/01/11 07:52:40;;;;;;;42.30;24.05;;;;;;;5.95;100.00;101855.44;5099372;28;20031;-70
2022/01/11 07:55:06;;;;;;;38.17;22.70;;;;;;;5.93;100.00;101853.94;5073929;27;20024;-70
2022/01/11 07:57:32;;;;;;;48.55;24.60;;;;;;;5.96;100.00;101859.03;5098107;27;20061;-70
2022/01/11 07:59:57;;;;;;;41.95;23.33;;;;;;;5.94;100.00;101867.56;5065620;27;20425;-70
2022/01/11 08:02:23;;;;;;;40.67;23.10;;;;;;;5.96;100.00;101864.56;5099569;27;20023;-70
2022/01/11 08:04:49;;;;;;;45.38;25.23;;;;;;;5.96;100.00;101870.06;5084361;27;20038;-70
2022/01/11 08:07:15;;;;;;;44.90;24.02;;;;;;;5.95;100.00;101873.91;5083176;27;20038;-70
2022/01/11 08:09:40;;;;;;;42.22;22.92;;;;;;;5.96;100.00;101876.44;5101626;27;20024;-70
2022/01/11 08:12:06;;;;;;;48.10;25.17;;;;;;;5.98;100.00;101882.56;5102458;27;20034;-70
2022/01/11 08:14:32;;;;;;;44.67;24.58;;;;;;;5.96;100.00;101889.38;5099296;27;20038;-70
2022/01/11 08:16:57;;;;;;;42.47;24.15;;;;;;;5.98;100.00;101881.72;5101367;27;21444;-70
2022/01/11 08:19:25;;;;;;;54.95;26.38;;;;;;;5.96;100.00;101895.75;5111145;28;20039;-70
2022/01/11 08:21:57;;;;;;;42.13;24.52;;;;;;;5.98;100.00;101896.34;5081930;28;20397;-70
2022/01/11 08:24:23;;;;;;;40.53;22.47;;;;;;;6.00;100.00;101899.72;5089481;27;20042;-70
2022/01/11 08:26:49;;;;;;;38.70;23.48;;;;;;;5.98;100.00;101899.09;5093795;27;20034;-70
2022/01/11 08:29:15;;;;;;;46.50;24.85;;;;;;;5.99;100.00;101894.41;5098666;27;20028;-70
2022/01/11 08:31:40;;;;;;;48.55;25.88;;;;;;;6.01;100.00;101898.63;5107223;27;20054;-70
2022/01/11 08:34:11;;;;;;;41.47;22.92;;;;;;;6.03;100.00;101901.19;5089981;27;20028;-70
2022/01/11 08:36:37;;;;;;;50.30;26.17;;;;;;;6.04;100.00;101903.72;5118095;27;20085;-70
2022/01/11 08:39:03;;;;;;;46.53;24.70;;;;;;;6.03;100.00;101904.78;5099734;27;20031;-70
2022/01/11 08:41:28;;;;;;;50.58;24.83;;;;;;;6.06;100.00;101897.97;5085632;27;20080;-70
2022/01/11 08:43:54;;;;;;;45.20;25.08;;;;;;;6.08;100.00;101900.50;5116256;27;20031;-70
2022/01/11 08:46:19;;;;;;;44.90;24.92;;;;;;;6.09;100.00;101903.00;5095644;28;20388;-70
2022/01/11 08:48:45;;;;;;;49.83;26.30;;;;;;;6.09;100.00;101905.78;5105535;27;20031;-70
2022/01/11 08:51:10;;;;;;;43.90;25.08;;;;;;;6.09;100.00;101903.00;5115180;27;20043;-70
2022/01/11 08:53:36;;;;;;;54.70;26.20;;;;;;;6.10;100.00;101910.22;5084283;27;20552;-70
2022/01/11 08:56:02;;;;;;;51.28;26.02;;;;;;;6.08;100.00;101903.25;5073868;28;20024;-70
2022/01/11 08:58:27;;;;;;;45.25;25.10;;;;;;;6.11;100.00;101913.81;5089240;27;20547;-70
2022/01/11 09:00:53;;;;;;;57.47;26.65;;;;;;;6.12;100.00;101915.50;5100609;27;20019;-70
2022/01/11 09:03:23;;;;;;;57.33;26.77;;;;;;;6.12;100.00;101913.59;5095504;27;20467;-70
2022/01/11 09:05:48;;;;;;;43.97;23.60;;;;;;;6.14;100.00;101924.41;5114995;27;20308;-70
2022/01/11 09:08:14;;;;;;;46.47;22.77;;;;;;;6.14;100.00;101921.63;5080465;28;20028;-70
2022/01/11 09:10:39;;;;;;;42.38;22.98;;;;;;;6.14;100.00;101922.47;5112065;27;20027;-70
2022/01/11 09:13:05;;;;;;;37.38;22.25;;;;;;;6.16;100.00;101930.53;5084643;27;20027;-70
2022/01/11 09:15:32;;;;;;;41.85;21.23;;;;;;;6.15;100.00;101924.16;5111956;28;20028;-70
2022/01/11 09:17:58;;;;;;;38.80;20.67;;;;;;;6.17;100.00;101926.69;5076025;27;20118;-70
2022/01/11 09:20:24;;;;;;;34.20;20.58;;;;;;;6.17;100.00;101929.44;5097137;27;20055;-70
2022/01/11 09:22:49;;;;;;;31.65;19.80;;;;;;;6.18;100.00;101931.13;5056462;28;20548;-70
2022/01/11 09:25:15;;;;;;;40.97;20.25;;;;;;;6.19;100.00;101933.66;5065651;27;20034;-70
2022/01/11 09:27:41;;;;;;;34.45;19.05;;;;;;;6.21;100.00;101930.66;5106700;27;20028;-70
2022/01/11 09:30:08;;;;;;;39.92;19.58;;;;;;;6.19;100.00;101930.06;5096767;28;20039;-70
2022/01/11 09:32:35;;;;;;;35.72;18.08;;;;;;;6.21;100.00;101937.06;5091669;27;20051;-70
2022/01/11 09:35:02;;;;;;;34.70;19.10;;;;;;;6.24;100.00;101941.22;5114622;27;20131;-70
2022/01/11 09:37:28;;;;;;;31.73;18.58;;;;;;;6.24;100.00;101953.13;5114903;27;20031;-70
2022/01/11 09:39:53;;;;;;;29.70;17.40;;;;;;;6.24;100.00;101949.50;5083865;27;20030;-70
2022/01/11 09:42:19;;;;;;;31.52;17.80;;;;;;;6.27;100.00;101951.84;5098966;28;20478;-70
2022/01/11 09:44:46;;;;;;;30.25;18.50;;;;;;;6.29;100.00;101957.94;5086468;27;20027;-70
2022/01/11 09:47:12;;;;;;;30.30;17.85;;;;;;;6.31;100.00;101960.50;5101764;27;20045;-71
2022/01/11 09:49:38;;;;;;;32.53;16.75;;;;;;;6.33;100.00;101961.13;5091929;28;20031;-70
2022/01/11 09:52:08;;;;;;;31.80;17.83;;;;;;;6.32;100.00;101965.75;5084734;27;20480;-71
2022/01/11 09:54:38;;;;;;;31.70;17.30;;;;;;;6.34;100.00;101969.13;5090230;27;20095;-70
2022/01/11 09:57:04;;;;;;;29.92;16.90;;;;;;;6.36;100.00;101971.69;5067389;27;20517;-70
2022/01/11 09:59:30;;;;;;;28.95;17.30;;;;;;;6.37;100.00;101976.13;5097795;27;20034;-70
2022/01/11 10:01:55;;;;;;;27.17;15.85;;;;;;;6.39;100.00;101974.81;5066399;28;20023;-70
2022/01/11 10:04:24;;;;;;;27.00;17.05;;;;;;;6.41;100.00;101972.69;5100166;28;20711;-70
2022/01/11 10:06:59;;;;;;;28.60;16.38;;;;;;;6.43;100.00;101976.03;5097731;28;20031;-70
2022/01/11 10:09:25;;;;;;;28.85;16.90;;;;;;;6.45;100.00;101984.09;5135245;27;20058;-70
2022/01/11 10:11:53;;;;;;;29.17;16.80;;;;;;;6.46;100.00;101983.88;5094449;27;20067;-70
2022/01/11 10:14:22;;;;;;;24.90;15.60;;;;;;;6.51;100.00;101987.84;5116093;27;20445;-70
2022/01/11 10:16:49;;;;;;;33.28;16.05;;;;;;;6.55;100.00;101997.38;5117011;27;20031;-70
2022/01/11 10:19:22;;;;;;;24.17;15.07;;;;;;;6.58;100.00;101994.13;5108988;27;20371;-70
2022/01/11 10:21:49;;;;;;;30.67;17.27;;;;;;;6.59;100.00;101993.06;5083693;28;20118;-70
2022/01/11 10:24:22;;;;;;;30.88;16.30;;;;;;;6.64;100.00;102004.25;5099570;28;20144;-70
2022/01/11 10:26:47;;;;;;;;;;;;;;;6.66;100.00;101996.59;5126009;27;20070;-70
2022/01/11 10:29:40;;;;;;;27.17;16.30;;;;;;;6.69;100.00;102008.00;5084697;28;19956;-70
2022/01/11 10:32:13;;;;;;;32.05;16.48;;;;;;;6.72;100.00;102007.53;5078306;28;20057;-71
2022/01/11 10:34:38;;;;;;;;;;;;;;;6.74;100.00;102010.03;5115973;28;20109;-70
2022/01/11 10:37:04;;;;;;;23.90;16.17;;;;;;;6.77;100.00;102008.75;5100124;28;19912;-70
2022/01/11 10:39:36;;;;;;;29.40;16.65;;;;;;;6.81;100.00;102009.97;5095561;28;20077;-71
2022/01/11 10:42:02;;;;;;;29.98;16.88;;;;;;;6.83;100.00;102018.88;5094691;28;20067;-71
2022/01/11 10:44:44;;;;;;;24.98;16.27;;;;;;;6.86;100.00;102018.41;5111809;28;20047;-71
2022/01/11 10:47:09;;;;;;;27.98;16.35;;;;;;;6.90;100.00;102025.16;5116942;28;20035;-70
2022/01/11 10:49:36;;;;;;;25.23;16.58;;;;;;;6.93;100.00;102024.69;5111813;28;20028;-71
2022/01/11 10:52:19;;;;;;;28.60;16.80;;;;;;;6.96;100.00;102020.59;5097581;28;20098;-70
2022/01/11 10:54:44;;;;;;;29.13;15.85;;;;;;;7.00;100.00;102024.59;5088774;28;20034;-70
2022/01/11 10:57:28;;;;;;;24.08;15.75;;;;;;;7.03;100.00;102024.13;5085343;28;20543;-71
2022/01/11 11:00:12;;;;;;;28.95;16.27;;;;;;;7.06;100.00;102024.50;5071069;28;20032;-71
2022/01/11 11:02:38;;;;;;;27.40;15.68;;;;;;;7.08;100.00;102022.34;5100967;28;20032;-71
2022/01/11 11:05:17;;;;;;;23.40;15.32;;;;;;;7.10;100.00;102019.34;5092556;28;20024;-74